Time;durP1;ratioP1;P1;durP2;ratioP2;P2;SDS_P1;SDS_P2;PMS_P1;PMS_P2;Temp;Humidity;BMP_temperature;BMP_pressure;BME280_temperature;BME280_humidity;BME280_pressure;Samples;Min_cycle;Max_cycle;Signal;HPM_P1;HPM_P2
2024/02/11 00:02:16;;;;;;;1.45;1.35;;;9.80;99.90;;;;;;4409055;32;20073;-60
2024/02/11 00:04:44;;;;;;;13.48;2.28;;;9.70;99.90;;;;;;4413641;32;20068;-58
2024/02/11 00:07:11;;;;;;;3.12;1.95;;;9.70;99.90;;;;;;4412400;32;20069;-57
2024/02/11 00:09:37;;;;;;;3.33;1.75;;;9.70;99.90;;;;;;4411196;32;20089;-57
2024/02/11 00:12:04;;;;;;;1.50;1.10;;;9.80;99.90;;;;;;4415099;32;20074;-59
2024/02/11 00:14:29;;;;;;;5.37;2.12;;;9.80;99.90;;;;;;4409756;32;20558;-57
2024/02/11 00:16:59;;;;;;;4.30;1.92;;;9.80;99.90;;;;;;4414146;32;20124;-59
2024/02/11 00:19:26;;;;;;;6.32;2.08;;;9.80;99.90;;;;;;4409536;32;20078;-59
2024/02/11 00:21:52;;;;;;;2.12;1.40;;;9.80;99.90;;;;;;4414121;32;20112;-58
2024/02/11 00:24:19;;;;;;;5.30;3.50;;;9.80;99.90;;;;;;4414500;32;20066;-58
2024/02/11 00:26:45;;;;;;;3.40;1.77;;;9.80;99.90;;;;;;4412864;32;20495;-57
2024/02/11 00:29:11;;;;;;;5.43;1.95;;;9.80;99.90;;;;;;4411056;32;20093;-59
2024/02/11 00:31:38;;;;;;;9.75;2.65;;;9.80;99.90;;;;;;4408082;32;20077;-57
2024/02/11 00:34:04;;;;;;;3.92;2.55;;;9.80;99.90;;;;;;4412595;32;20292;-58
2024/02/11 00:36:31;;;;;;;2.17;1.75;;;9.80;99.90;;;;;;4413288;32;20149;-59
2024/02/11 00:38:56;;;;;;;26.30;5.40;;;9.80;99.90;;;;;;4412553;32;20517;-59
2024/02/11 00:41:22;;;;;;;2.25;1.73;;;9.90;99.90;;;;;;4409286;32;20086;-59
2024/02/11 00:43:50;;;;;;;3.03;1.70;;;9.80;99.90;;;;;;4411834;32;20665;-59
2024/02/11 00:46:16;;;;;;;1.98;1.40;;;9.80;99.90;;;;;;4409647;32;20131;-58
2024/02/11 00:48:45;;;;;;;3.90;2.78;;;9.80;99.90;;;;;;4408412;32;20188;-59
2024/02/11 00:51:11;;;;;;;2.00;1.40;;;9.80;99.90;;;;;;4410687;32;20074;-59
2024/02/11 00:53:37;;;;;;;1.62;1.23;;;9.80;99.90;;;;;;4413871;32;20085;-59
2024/02/11 00:56:02;;;;;;;1.87;1.77;;;9.80;99.90;;;;;;4416962;32;20077;-57
2024/02/11 00:58:30;;;;;;;1.73;1.60;;;9.80;99.90;;;;;;4414013;32;20065;-58
2024/02/11 01:00:55;;;;;;;2.72;2.25;;;9.80;99.90;;;;;;4413017;32;20124;-58
2024/02/11 01:03:21;;;;;;;4.30;2.17;;;9.80;99.90;;;;;;4414450;32;20085;-60
2024/02/11 01:05:46;;;;;;;4.18;2.22;;;9.80;99.90;;;;;;4417594;32;20073;-60
2024/02/11 01:08:11;;;;;;;3.45;2.17;;;9.80;99.90;;;;;;4415378;32;20086;-60
2024/02/11 01:10:38;;;;;;;2.70;2.35;;;9.80;99.90;;;;;;4413290;32;20553;-61
2024/02/11 01:13:04;;;;;;;3.72;1.87;;;9.80;99.90;;;;;;4414893;32;20385;-59
2024/02/11 01:15:30;;;;;;;6.35;3.47;;;9.80;99.90;;;;;;4412784;32;20094;-58
2024/02/11 01:17:55;;;;;;;3.25;1.87;;;9.80;99.90;;;;;;4416192;32;20081;-58
2024/02/11 01:20:21;;;;;;;5.82;2.65;;;9.80;99.90;;;;;;4414548;32;20492;-59
2024/02/11 01:22:47;;;;;;;3.28;2.17;;;9.80;99.90;;;;;;4413994;32;20256;-60
2024/02/11 01:25:19;;;;;;;2.22;1.62;;;9.80;99.90;;;;;;4400143;32;20151;-59
2024/02/11 01:27:46;;;;;;;5.47;2.47;;;9.70;99.90;;;;;;4412925;32;20080;-58
2024/02/11 01:30:13;;;;;;;4.10;2.40;;;9.70;99.90;;;;;;4401263;32;20081;-60
2024/02/11 01:32:38;;;;;;;5.62;2.00;;;9.70;99.90;;;;;;4416418;32;20092;-59
2024/02/11 01:35:06;;;;;;;3.08;2.25;;;9.70;99.90;;;;;;4413728;32;20590;-58
2024/02/11 01:37:32;;;;;;;20.52;3.67;;;9.70;99.90;;;;;;4417612;32;20426;-60
2024/02/11 01:39:58;;;;;;;7.00;2.85;;;9.70;99.90;;;;;;4414542;32;20069;-59
2024/02/11 01:42:23;;;;;;;2.33;2.08;;;9.70;99.90;;;;;;4413440;32;20102;-60
2024/02/11 01:44:49;;;;;;;6.62;2.78;;;9.70;99.90;;;;;;4413245;32;20443;-60
2024/02/11 01:47:15;;;;;;;8.13;3.37;;;9.70;99.90;;;;;;4415032;32;20182;-58
2024/02/11 01:49:41;;;;;;;8.98;2.67;;;9.70;99.90;;;;;;4412913;32;20089;-59
2024/02/11 01:52:06;;;;;;;2.95;1.85;;;9.70;99.90;;;;;;4415136;32;20074;-58
2024/02/11 01:54:34;;;;;;;3.85;2.22;;;9.60;99.90;;;;;;4415605;32;20073;-58
2024/02/11 01:57:00;;;;;;;8.02;1.80;;;9.60;99.90;;;;;;4410414;32;20153;-60
2024/02/11 01:59:29;;;;;;;5.07;3.33;;;9.60;99.90;;;;;;4411261;32;20564;-60
2024/02/11 02:01:54;;;;;;;5.43;2.97;;;9.60;99.90;;;;;;4413880;32;20132;-59
2024/02/11 02:04:20;;;;;;;3.78;2.72;;;9.50;99.90;;;;;;4412633;32;20866;-60
2024/02/11 02:06:46;;;;;;;6.00;2.97;;;9.50;99.90;;;;;;4417903;32;20528;-59
2024/02/11 02:09:13;;;;;;;4.90;3.05;;;9.50;99.90;;;;;;4414129;32;20094;-59
2024/02/11 02:11:39;;;;;;;2.87;2.10;;;9.50;99.90;;;;;;4410936;32;20517;-59
2024/02/11 02:14:06;;;;;;;6.47;3.12;;;9.50;99.90;;;;;;4412947;32;20082;-59
2024/02/11 02:16:31;;;;;;;8.00;2.20;;;9.50;99.90;;;;;;4413041;32;21339;-59
2024/02/11 02:18:57;;;;;;;20.37;3.25;;;9.50;99.90;;;;;;4414566;32;20536;-59
2024/02/11 02:21:25;;;;;;;5.40;2.92;;;9.50;99.90;;;;;;4415450;32;20451;-60
2024/02/11 02:23:51;;;;;;;3.33;2.08;;;9.50;99.90;;;;;;4410274;32;20069;-59
2024/02/11 02:26:17;;;;;;;4.65;2.45;;;9.50;99.90;;;;;;4415010;32;20131;-58
2024/02/11 02:28:42;;;;;;;2.15;1.92;;;9.40;99.90;;;;;;4410967;32;20093;-59
2024/02/11 02:31:08;;;;;;;14.52;3.70;;;9.40;99.90;;;;;;4413054;32;20077;-59
2024/02/11 02:33:34;;;;;;;5.25;2.85;;;9.50;99.90;;;;;;4412929;32;20090;-59
2024/02/11 02:36:01;;;;;;;6.45;3.22;;;9.50;99.90;;;;;;4412076;32;20422;-58
2024/02/11 02:38:26;;;;;;;8.43;3.28;;;9.50;99.90;;;;;;4415428;32;20061;-58
2024/02/11 02:40:51;;;;;;;10.68;3.20;;;9.40;99.90;;;;;;4413571;32;20073;-58
2024/02/11 02:43:17;;;;;;;3.75;2.72;;;9.40;99.90;;;;;;4408569;32;20061;-57
2024/02/11 02:45:43;;;;;;;4.28;2.67;;;9.40;99.90;;;;;;4409472;32;20156;-58
2024/02/11 02:48:09;;;;;;;4.90;2.75;;;9.40;99.90;;;;;;4413616;32;20423;-62
2024/02/11 02:50:35;;;;;;;15.95;5.05;;;9.40;99.90;;;;;;4413302;32;20073;-59
2024/02/11 02:53:01;;;;;;;8.13;2.62;;;9.40;99.90;;;;;;4400876;32;20144;-57
2024/02/11 02:55:26;;;;;;;9.68;3.00;;;9.40;99.90;;;;;;4415869;32;20422;-58
2024/02/11 02:57:52;;;;;;;3.00;1.67;;;9.40;99.90;;;;;;4410706;32;20116;-58
2024/02/11 03:00:19;;;;;;;4.70;2.17;;;9.40;99.90;;;;;;4410180;32;20065;-59
2024/02/11 03:02:45;;;;;;;6.07;2.08;;;9.40;99.90;;;;;;4411554;32;20073;-58
2024/02/11 03:05:11;;;;;;;5.22;2.80;;;9.40;99.90;;;;;;4415711;32;20430;-58
2024/02/11 03:07:40;;;;;;;7.37;4.12;;;9.40;99.90;;;;;;4414680;32;20070;-57
2024/02/11 03:10:06;;;;;;;2.75;2.37;;;9.40;99.90;;;;;;4414575;32;20128;-57
2024/02/11 03:12:32;;;;;;;5.03;2.62;;;9.40;99.90;;;;;;4413380;32;20132;-59
2024/02/11 03:14:57;;;;;;;13.38;3.80;;;9.30;99.90;;;;;;4410181;32;20770;-59
2024/02/11 03:17:23;;;;;;;7.40;2.90;;;9.30;99.90;;;;;;4418872;32;20069;-59
2024/02/11 03:19:48;;;;;;;3.25;1.65;;;9.30;99.90;;;;;;4416359;32;20077;-57
2024/02/11 03:22:14;;;;;;;3.90;2.65;;;9.30;99.90;;;;;;4412330;32;20450;-59
2024/02/11 03:24:40;;;;;;;9.13;3.70;;;9.30;99.90;;;;;;4414519;32;20797;-58
2024/02/11 03:27:06;;;;;;;3.55;2.40;;;9.30;99.90;;;;;;4412862;32;20761;-58
2024/02/11 03:29:33;;;;;;;2.12;1.75;;;9.30;99.90;;;;;;4413640;32;20094;-63
2024/02/11 03:31:58;;;;;;;9.43;3.30;;;9.20;99.90;;;;;;4412786;32;20524;-58
2024/02/11 03:34:25;;;;;;;6.57;2.70;;;9.30;99.90;;;;;;4414893;32;20081;-56
2024/02/11 03:36:51;;;;;;;3.95;1.87;;;9.30;99.90;;;;;;4413179;32;20061;-57
2024/02/11 03:39:19;;;;;;;13.32;5.10;;;9.20;99.90;;;;;;4413595;32;20569;-59
2024/02/11 03:41:44;;;;;;;6.97;3.15;;;9.20;99.90;;;;;;4411882;32;20072;-58
2024/02/11 03:44:10;;;;;;;5.12;1.75;;;9.20;99.90;;;;;;4410846;32;20164;-59
2024/02/11 03:46:35;;;;;;;7.30;3.70;;;9.20;99.90;;;;;;4410265;32;20073;-59
2024/02/11 03:49:03;;;;;;;7.60;2.03;;;9.20;99.90;;;;;;4414047;32;20190;-59
2024/02/11 03:51:30;;;;;;;14.48;3.35;;;9.20;99.90;;;;;;4416065;32;20064;-59
2024/02/11 03:53:59;;;;;;;3.50;2.42;;;9.20;99.90;;;;;;4412412;32;20572;-58
2024/02/11 03:56:28;;;;;;;4.20;2.78;;;9.20;99.90;;;;;;4412711;32;20545;-59
2024/02/11 03:58:54;;;;;;;6.90;2.35;;;9.20;99.90;;;;;;4410129;32;20089;-59
2024/02/11 04:01:19;;;;;;;3.83;2.97;;;9.20;99.90;;;;;;4411266;32;20443;-59
2024/02/11 04:03:44;;;;;;;5.87;2.92;;;9.20;99.90;;;;;;4410184;32;20418;-58
2024/02/11 04:06:11;;;;;;;6.87;3.22;;;9.20;99.90;;;;;;4411237;32;20073;-58
2024/02/11 04:08:41;;;;;;;5.28;2.87;;;9.20;99.90;;;;;;4412917;32;20184;-58
2024/02/11 04:11:07;;;;;;;4.62;2.25;;;9.30;99.90;;;;;;4410765;32;20101;-58
2024/02/11 04:13:32;;;;;;;6.00;2.80;;;9.30;99.90;;;;;;4409220;32;20073;-56
2024/02/11 04:16:05;;;;;;;15.35;3.12;;;9.30;99.90;;;;;;4409721;32;20089;-58
2024/02/11 04:18:32;;;;;;;7.60;2.85;;;9.20;99.90;;;;;;4412121;32;20545;-58
2024/02/11 04:20:59;;;;;;;14.35;3.65;;;9.20;99.90;;;;;;4414495;32;20486;-59
2024/02/11 04:23:25;;;;;;;5.18;3.25;;;9.20;99.90;;;;;;4407528;32;20073;-59
2024/02/11 04:25:52;;;;;;;4.60;2.83;;;9.20;99.90;;;;;;4414124;32;20506;-59
2024/02/11 04:28:20;;;;;;;6.25;3.05;;;9.20;99.90;;;;;;4414400;32;20089;-60
2024/02/11 04:30:46;;;;;;;3.45;2.25;;;9.20;99.90;;;;;;4411498;32;20086;-59
2024/02/11 04:33:20;;;;;;;10.60;4.97;;;9.20;99.90;;;;;;4413192;32;20093;-58
2024/02/11 04:35:46;;;;;;;11.23;3.15;;;9.20;99.90;;;;;;4417438;32;20081;-59
2024/02/11 04:38:12;;;;;;;6.15;1.85;;;9.20;99.90;;;;;;4418260;32;20084;-57
2024/02/11 04:40:39;;;;;;;3.75;2.67;;;9.20;99.90;;;;;;4414971;32;20137;-58
2024/02/11 04:43:04;;;;;;;3.30;2.65;;;9.20;99.90;;;;;;4412020;32;20138;-58
2024/02/11 04:45:30;;;;;;;2.72;2.17;;;9.20;99.90;;;;;;4412980;32;20073;-58
2024/02/11 04:47:58;;;;;;;5.00;2.92;;;9.20;99.90;;;;;;4416717;32;20142;-59
2024/02/11 04:50:26;;;;;;;7.68;4.28;;;9.20;99.90;;;;;;4413196;32;20097;-58
2024/02/11 04:52:54;;;;;;;5.60;2.40;;;9.20;99.90;;;;;;4399979;32;20090;-58
2024/02/11 04:55:38;;;;;;;7.70;3.10;;;9.20;99.90;;;;;;4415777;32;20217;-59
2024/02/11 04:58:04;;;;;;;10.35;3.22;;;9.20;99.90;;;;;;4400092;32;20589;-58
2024/02/11 05:00:33;;;;;;;2.90;2.45;;;9.20;99.90;;;;;;4401994;32;20078;-59
2024/02/11 05:03:03;;;;;;;4.87;2.87;;;9.20;99.90;;;;;;4412239;32;20473;-58
2024/02/11 05:05:31;;;;;;;9.27;4.28;;;9.20;99.90;;;;;;4414255;32;20080;-57
2024/02/11 05:08:00;;;;;;;4.72;3.05;;;9.20;99.90;;;;;;4412774;32;20089;-60
2024/02/11 05:10:27;;;;;;;3.00;1.90;;;9.10;99.90;;;;;;4399266;32;20776;-58
2024/02/11 05:12:53;;;;;;;9.07;3.28;;;9.10;99.90;;;;;;4415259;32;20635;-61
2024/02/11 05:15:20;;;;;;;6.60;2.60;;;9.10;99.90;;;;;;4400325;32;20077;-59
2024/02/11 05:17:48;;;;;;;6.10;3.03;;;9.10;99.90;;;;;;4412973;32;20243;-58
2024/02/11 05:20:19;;;;;;;11.60;3.67;;;9.10;99.90;;;;;;4417791;32;20078;-59
2024/02/11 05:22:45;;;;;;;8.18;3.60;;;9.10;99.90;;;;;;4413441;32;20462;-59
2024/02/11 05:25:19;;;;;;;6.70;3.50;;;9.10;99.90;;;;;;4416498;32;20065;-59
2024/02/11 05:27:46;;;;;;;3.17;2.40;;;9.10;99.90;;;;;;4415992;32;20081;-60
2024/02/11 05:30:12;;;;;;;6.70;1.90;;;9.10;99.90;;;;;;4410353;32;20070;-58
2024/02/11 05:32:38;;;;;;;24.17;5.78;;;9.10;99.90;;;;;;4414713;32;20533;-57
2024/02/11 05:35:09;;;;;;;4.18;2.50;;;9.00;99.90;;;;;;4411870;32;20069;-57
2024/02/11 05:37:35;;;;;;;3.85;2.92;;;9.00;99.90;;;;;;4417622;32;20131;-58
2024/02/11 05:40:00;;;;;;;24.87;5.03;;;9.00;99.90;;;;;;4412585;32;20085;-57
2024/02/11 05:42:26;;;;;;;9.75;3.05;;;9.00;99.90;;;;;;4411350;32;20133;-58
2024/02/11 05:44:51;;;;;;;7.22;3.95;;;9.00;99.90;;;;;;4411690;32;20513;-59
2024/02/11 05:47:17;;;;;;;7.47;3.45;;;9.00;99.90;;;;;;4412035;32;20077;-59
2024/02/11 05:49:42;;;;;;;2.15;1.95;;;9.00;99.90;;;;;;4413344;32;21324;-59
2024/02/11 05:52:09;;;;;;;13.48;3.12;;;9.00;99.90;;;;;;4412758;32;20101;-59
2024/02/11 05:54:35;;;;;;;13.77;3.58;;;9.00;99.90;;;;;;4411764;32;20073;-59
2024/02/11 05:57:00;;;;;;;4.62;2.20;;;9.10;99.90;;;;;;4417621;32;20101;-66
2024/02/11 05:59:26;;;;;;;3.83;2.70;;;9.10;99.90;;;;;;4412771;32;20085;-59
2024/02/11 06:01:51;;;;;;;4.50;2.15;;;9.10;99.90;;;;;;4413281;32;21074;-57
2024/02/11 06:04:17;;;;;;;4.75;2.65;;;9.10;99.90;;;;;;4414944;32;20536;-58
2024/02/11 06:06:42;;;;;;;3.70;1.98;;;9.10;99.90;;;;;;4413095;32;20077;-59
2024/02/11 06:09:12;;;;;;;3.33;2.40;;;9.10;99.90;;;;;;4414010;32;20073;-60
2024/02/11 06:11:39;;;;;;;10.95;5.45;;;9.10;99.90;;;;;;4410892;32;20857;-58
2024/02/11 06:14:05;;;;;;;6.28;3.95;;;9.10;99.90;;;;;;4412807;32;20081;-59
2024/02/11 06:16:31;;;;;;;6.70;2.78;;;9.10;99.90;;;;;;4415400;32;20123;-59
2024/02/11 06:18:56;;;;;;;9.20;3.17;;;9.10;99.90;;;;;;4415247;32;20073;-58
2024/02/11 06:21:22;;;;;;;5.40;3.70;;;9.00;99.90;;;;;;4414134;32;20092;-58
2024/02/11 06:23:48;;;;;;;14.48;4.68;;;8.90;99.90;;;;;;4414830;32;20077;-59
2024/02/11 06:26:16;;;;;;;18.20;3.12;;;8.90;99.90;;;;;;4413585;32;20494;-58
2024/02/11 06:28:41;;;;;;;4.10;2.22;;;8.90;99.90;;;;;;4415550;32;20081;-58
2024/02/11 06:31:07;;;;;;;6.65;2.85;;;9.00;99.90;;;;;;4412195;32;20572;-59
2024/02/11 06:33:33;;;;;;;4.62;3.17;;;9.00;99.90;;;;;;4415310;32;20126;-58
2024/02/11 06:35:58;;;;;;;3.97;2.78;;;8.90;99.90;;;;;;4413366;32;20088;-59
2024/02/11 06:38:24;;;;;;;4.55;2.65;;;8.90;99.90;;;;;;4418512;32;20073;-58
2024/02/11 06:40:50;;;;;;;12.32;5.28;;;8.90;99.90;;;;;;4411819;32;20080;-59
2024/02/11 06:43:17;;;;;;;5.85;3.28;;;8.90;99.90;;;;;;4414227;32;20180;-59
2024/02/11 06:45:45;;;;;;;22.98;4.40;;;9.00;99.90;;;;;;4411792;32;20081;-59
2024/02/11 06:48:12;;;;;;;3.92;2.65;;;9.00;99.90;;;;;;4413681;32;20660;-59
2024/02/11 06:50:38;;;;;;;7.37;3.47;;;8.90;99.90;;;;;;4414284;32;20128;-59
2024/02/11 06:53:06;;;;;;;9.75;3.55;;;8.90;99.90;;;;;;4416436;32;20450;-59
2024/02/11 06:55:31;;;;;;;3.95;2.72;;;8.90;99.90;;;;;;4415604;32;20189;-59
2024/02/11 06:57:57;;;;;;;6.50;2.53;;;8.90;99.90;;;;;;4416973;32;20789;-59
2024/02/11 07:00:24;;;;;;;4.93;1.80;;;8.90;99.90;;;;;;4414121;32;20085;-59
2024/02/11 07:02:52;;;;;;;5.70;2.53;;;8.80;99.90;;;;;;4414951;32;20073;-58
2024/02/11 07:05:19;;;;;;;3.90;3.20;;;8.80;99.90;;;;;;4412019;32;20073;-59
2024/02/11 07:07:45;;;;;;;5.82;2.35;;;8.90;99.90;;;;;;4414303;32;20459;-58
2024/02/11 07:10:11;;;;;;;4.07;2.53;;;8.90;99.90;;;;;;4412876;32;20093;-58
2024/02/11 07:12:36;;;;;;;3.75;1.87;;;8.80;99.90;;;;;;4407340;32;20128;-58
2024/02/11 07:15:04;;;;;;;11.32;4.22;;;8.90;99.90;;;;;;4412445;32;20070;-58
2024/02/11 07:17:30;;;;;;;24.73;5.60;;;8.80;99.90;;;;;;4413483;32;20454;-58
2024/02/11 07:19:56;;;;;;;11.45;3.78;;;8.90;99.90;;;;;;4412134;32;20373;-58
2024/02/11 07:22:21;;;;;;;4.50;3.20;;;8.80;99.90;;;;;;4414023;32;20069;-58
2024/02/11 07:24:47;;;;;;;5.80;3.90;;;8.80;99.90;;;;;;4412053;32;20521;-59
2024/02/11 07:27:14;;;;;;;9.43;4.10;;;8.80;99.90;;;;;;4414908;32;20415;-59
2024/02/11 07:29:41;;;;;;;14.18;3.22;;;8.80;99.90;;;;;;4410856;32;20405;-59
2024/02/11 07:32:06;;;;;;;9.63;3.45;;;8.80;99.90;;;;;;4414056;32;20085;-59
2024/02/11 07:34:32;;;;;;;14.68;5.20;;;8.80;99.90;;;;;;4414559;32;20651;-60
2024/02/11 07:37:02;;;;;;;6.03;2.50;;;8.80;99.90;;;;;;4414538;32;20101;-60
2024/02/11 07:39:28;;;;;;;4.12;2.40;;;8.80;99.90;;;;;;4412938;32;20097;-60
2024/02/11 07:41:54;;;;;;;4.07;2.62;;;8.80;99.90;;;;;;4412770;32;20082;-60
2024/02/11 07:44:19;;;;;;;9.18;2.00;;;8.80;99.90;;;;;;4411899;32;21033;-59
2024/02/11 07:46:45;;;;;;;14.25;3.60;;;8.80;99.90;;;;;;4401532;32;20079;-60
2024/02/11 07:49:13;;;;;;;32.67;4.65;;;8.80;99.90;;;;;;4412367;32;20101;-59
2024/02/11 07:51:44;;;;;;;11.35;3.75;;;8.80;99.90;;;;;;4415922;32;20064;-59
2024/02/11 07:54:10;;;;;;;25.20;4.62;;;8.80;99.90;;;;;;4414444;32;20081;-59
2024/02/11 07:56:36;;;;;;;5.72;2.65;;;8.80;99.90;;;;;;4411036;32;20069;-59
2024/02/11 07:59:01;;;;;;;8.48;5.57;;;8.80;99.90;;;;;;4411172;32;20423;-60
2024/02/11 08:01:27;;;;;;;2.78;2.42;;;8.80;99.90;;;;;;4411956;32;20409;-58
2024/02/11 08:03:53;;;;;;;3.22;2.47;;;8.80;99.90;;;;;;4413741;32;20074;-58
2024/02/11 08:06:19;;;;;;;28.00;6.40;;;8.90;99.90;;;;;;4411706;32;20077;-58
2024/02/11 08:08:44;;;;;;;9.65;2.58;;;8.80;99.90;;;;;;4412280;32;20069;-58
2024/02/11 08:11:10;;;;;;;9.23;3.67;;;8.80;99.90;;;;;;4407826;32;20085;-59
2024/02/11 08:13:35;;;;;;;11.18;4.35;;;8.80;99.90;;;;;;4408980;32;20077;-58
2024/02/11 08:16:03;;;;;;;7.07;3.55;;;8.80;99.90;;;;;;4409983;32;20078;-57
2024/02/11 08:18:29;;;;;;;23.35;3.22;;;8.80;99.90;;;;;;4412583;32;20074;-59
2024/02/11 08:20:56;;;;;;;8.90;4.25;;;8.80;99.90;;;;;;4411387;32;20073;-59
2024/02/11 08:23:23;;;;;;;7.53;3.33;;;8.80;99.90;;;;;;4412526;32;20247;-60
2024/02/11 08:25:49;;;;;;;9.77;3.28;;;8.80;99.90;;;;;;4412214;32;20094;-57
2024/02/11 08:28:15;;;;;;;27.87;5.72;;;8.80;99.90;;;;;;4409054;32;20085;-59
2024/02/11 08:30:40;;;;;;;7.18;2.08;;;8.80;99.90;;;;;;4411798;32;20130;-60
2024/02/11 08:33:09;;;;;;;3.35;1.50;;;8.80;99.90;;;;;;4412336;32;20821;-60
2024/02/11 08:35:35;;;;;;;2.35;2.15;;;8.80;99.90;;;;;;4414484;32;20129;-59
2024/02/11 08:38:00;;;;;;;11.30;3.83;;;8.80;99.90;;;;;;4412082;32;20146;-59
2024/02/11 08:40:26;;;;;;;11.65;3.65;;;8.80;99.90;;;;;;4415200;32;20853;-58
2024/02/11 08:42:51;;;;;;;4.22;2.87;;;8.80;99.90;;;;;;4407443;32;20154;-58
2024/02/11 08:45:17;;;;;;;5.00;2.72;;;8.80;99.90;;;;;;4410366;32;20077;-56
2024/02/11 08:47:43;;;;;;;3.78;2.35;;;8.80;99.90;;;;;;4409080;32;20081;-58
2024/02/11 08:50:10;;;;;;;6.57;3.75;;;8.80;99.90;;;;;;4411762;32;20481;-58
2024/02/11 08:52:36;;;;;;;6.75;3.75;;;8.90;99.90;;;;;;4413899;32;20546;-60
2024/02/11 08:55:02;;;;;;;17.12;5.80;;;8.90;99.90;;;;;;4416447;32;20078;-58
2024/02/11 08:57:28;;;;;;;3.55;2.33;;;8.90;99.90;;;;;;4413194;32;20081;-57
2024/02/11 08:59:55;;;;;;;13.90;4.68;;;8.90;99.90;;;;;;4408636;32;20085;-57
2024/02/11 09:02:22;;;;;;;14.40;4.05;;;9.00;99.90;;;;;;4412711;32;20288;-58
2024/02/11 09:04:47;;;;;;;9.82;4.80;;;9.00;99.90;;;;;;4413752;32;20074;-57
2024/02/11 09:07:13;;;;;;;10.32;2.05;;;9.00;99.90;;;;;;4411893;32;20383;-58
2024/02/11 09:09:38;;;;;;;5.18;2.78;;;9.00;99.90;;;;;;4410917;32;21086;-58
2024/02/11 09:12:05;;;;;;;7.82;4.82;;;9.00;99.90;;;;;;4412649;32;20458;-58
2024/02/11 09:14:31;;;;;;;3.72;2.40;;;9.00;99.90;;;;;;4413444;32;20086;-57
2024/02/11 09:16:59;;;;;;;4.93;3.37;;;9.00;99.90;;;;;;4415580;32;20061;-57
2024/02/11 09:19:26;;;;;;;5.12;2.67;;;9.00;99.90;;;;;;4399802;32;20061;-57
2024/02/11 09:21:54;;;;;;;18.23;3.35;;;9.00;99.90;;;;;;4401640;32;20090;-59
2024/02/11 09:24:20;;;;;;;8.82;3.62;;;9.00;99.90;;;;;;4416259;32;20088;-57
2024/02/11 09:26:47;;;;;;;4.10;2.75;;;9.00;99.90;;;;;;4416055;32;20070;-59
2024/02/11 09:29:12;;;;;;;9.70;5.50;;;9.00;99.90;;;;;;4398207;32;20595;-60
2024/02/11 09:31:39;;;;;;;3.67;2.12;;;9.00;99.90;;;;;;4415502;32;20130;-59
2024/02/11 09:34:05;;;;;;;16.80;5.15;;;9.10;99.90;;;;;;4413958;32;20074;-60
2024/02/11 09:36:31;;;;;;;9.40;2.85;;;9.10;99.90;;;;;;4413705;32;20097;-59
2024/02/11 09:38:56;;;;;;;17.00;4.32;;;9.00;99.90;;;;;;4412562;32;20057;-59
2024/02/11 09:41:22;;;;;;;5.20;3.35;;;9.00;99.90;;;;;;4414901;32;20085;-59
2024/02/11 09:43:49;;;;;;;7.15;3.33;;;9.00;99.90;;;;;;4411418;32;20140;-60
2024/02/11 09:46:17;;;;;;;9.80;2.37;;;9.10;99.90;;;;;;4417719;32;20482;-60
2024/02/11 09:48:44;;;;;;;6.47;3.03;;;9.10;99.90;;;;;;4414276;32;20124;-58
2024/02/11 09:51:12;;;;;;;5.95;2.90;;;9.10;99.90;;;;;;4402026;32;20085;-59
2024/02/11 09:53:39;;;;;;;7.40;3.17;;;9.10;99.90;;;;;;4416187;32;20074;-60
2024/02/11 09:56:06;;;;;;;3.95;3.10;;;9.10;99.90;;;;;;4415503;32;21191;-59
2024/02/11 09:58:32;;;;;;;7.68;3.67;;;9.20;99.90;;;;;;4412577;32;20077;-59
2024/02/11 10:00:58;;;;;;;6.70;3.25;;;9.20;99.90;;;;;;4414189;32;20093;-56
2024/02/11 10:03:27;;;;;;;3.17;2.75;;;9.20;99.90;;;;;;4412249;32;20085;-59
2024/02/11 10:05:55;;;;;;;8.45;3.15;;;9.10;99.90;;;;;;4412952;32;20533;-59
2024/02/11 10:08:21;;;;;;;7.45;3.50;;;9.10;99.90;;;;;;4412167;32;20073;-60
2024/02/11 10:10:48;;;;;;;8.55;4.20;;;9.20;99.90;;;;;;4408883;32;20144;-60
2024/02/11 10:13:19;;;;;;;2.37;1.85;;;9.10;99.90;;;;;;4409867;32;20580;-59
2024/02/11 10:15:46;;;;;;;3.40;2.60;;;9.10;99.90;;;;;;4414225;32;20551;-60
2024/02/11 10:18:12;;;;;;;5.28;2.35;;;9.20;99.90;;;;;;4412527;32;20521;-59
2024/02/11 10:20:38;;;;;;;7.50;3.35;;;9.20;99.90;;;;;;4415362;32;20057;-60
2024/02/11 10:23:05;;;;;;;18.60;3.12;;;9.10;99.90;;;;;;4401460;32;20077;-60
2024/02/11 10:25:31;;;;;;;15.35;3.72;;;9.10;99.90;;;;;;4410604;32;20127;-61
2024/02/11 10:27:56;;;;;;;4.62;1.95;;;9.10;99.90;;;;;;4413935;32;20477;-57
2024/02/11 10:30:22;;;;;;;6.18;3.10;;;9.10;99.90;;;;;;4412984;32;20081;-57
2024/02/11 10:32:48;;;;;;;3.75;2.03;;;9.10;99.90;;;;;;4413275;32;20069;-57
2024/02/11 10:35:17;;;;;;;12.27;5.28;;;9.10;99.90;;;;;;4414340;32;20781;-59
2024/02/11 10:37:45;;;;;;;10.13;4.15;;;9.00;99.90;;;;;;4414452;32;20566;-58
2024/02/11 10:40:11;;;;;;;4.05;2.50;;;9.10;99.90;;;;;;4410454;32;20089;-58
2024/02/11 10:42:40;;;;;;;4.10;2.00;;;9.10;99.90;;;;;;4413657;32;20090;-58
2024/02/11 10:45:06;;;;;;;11.05;2.45;;;9.10;99.90;;;;;;4412196;32;20837;-58
2024/02/11 10:47:32;;;;;;;2.10;1.67;;;9.10;99.90;;;;;;4413111;32;20072;-57
2024/02/11 10:49:57;;;;;;;8.27;2.65;;;9.10;99.90;;;;;;4417031;32;20085;-58
2024/02/11 10:52:25;;;;;;;7.68;2.12;;;9.10;99.90;;;;;;4415610;32;20128;-59
2024/02/11 10:54:55;;;;;;;3.35;1.60;;;9.10;99.90;;;;;;4413127;32;20126;-58
2024/02/11 10:57:23;;;;;;;2.25;1.85;;;9.10;99.90;;;;;;4415229;32;20077;-58
2024/02/11 10:59:58;;;;;;;1.98;1.55;;;9.20;99.90;;;;;;4409958;32;20517;-58
2024/02/11 11:02:27;;;;;;;14.52;2.95;;;9.20;99.90;;;;;;4413836;32;20090;-59
2024/02/11 11:04:57;;;;;;;2.03;1.80;;;9.10;99.90;;;;;;4415207;32;20667;-60
2024/02/11 11:07:24;;;;;;;8.80;2.58;;;9.10;99.90;;;;;;4415412;32;20101;-60
2024/02/11 11:09:49;;;;;;;4.37;2.60;;;9.10;99.90;;;;;;4411011;32;20169;-61
2024/02/11 11:12:18;;;;;;;3.75;2.33;;;9.10;99.90;;;;;;4411720;32;20225;-61
2024/02/11 11:14:45;;;;;;;17.95;2.03;;;9.10;99.90;;;;;;4411113;32;20077;-58
2024/02/11 11:17:17;;;;;;;3.15;2.22;;;9.10;99.90;;;;;;4414192;32;20169;-61
2024/02/11 11:19:47;;;;;;;7.57;3.55;;;9.20;99.90;;;;;;4413783;32;20105;-60
2024/02/11 11:22:13;;;;;;;;;;;9.10;99.90;;;;;;4412219;32;21024;-60
2024/02/11 11:24:39;;;;;;;9.73;2.97;;;9.10;99.90;;;;;;4413657;32;19968;-60
2024/02/11 11:27:04;;;;;;;1.27;1.17;;;9.20;99.90;;;;;;4413582;32;20105;-58
2024/02/11 11:29:32;;;;;;;7.47;2.97;;;9.20;99.90;;;;;;4411127;32;20090;-60
2024/02/11 11:31:59;;;;;;;1.80;1.35;;;9.30;99.90;;;;;;4412440;32;20077;-60
2024/02/11 11:34:26;;;;;;;11.25;2.37;;;9.30;99.90;;;;;;4411456;32;20509;-59
2024/02/11 11:36:51;;;;;;;8.50;3.62;;;9.30;99.90;;;;;;4409985;32;20146;-60
2024/02/11 11:39:18;;;;;;;4.07;2.53;;;9.20;99.90;;;;;;4417230;32;20491;-60
2024/02/11 11:41:45;;;;;;;4.32;1.90;;;9.20;99.90;;;;;;4411515;32;21284;-59
2024/02/11 11:44:10;;;;;;;10.15;3.47;;;9.20;99.90;;;;;;4407426;32;20442;-58
2024/02/11 11:46:36;;;;;;;3.08;1.48;;;9.30;99.90;;;;;;4409462;32;20122;-59
2024/02/11 11:49:02;;;;;;;4.57;2.78;;;9.30;99.90;;;;;;4413777;32;20584;-64
2024/02/11 11:51:28;;;;;;;3.15;2.03;;;9.20;99.90;;;;;;4407110;32;111968;-60
2024/02/11 11:53:54;;;;;;;6.70;3.28;;;9.30;99.90;;;;;;4408581;32;20068;-59
2024/02/11 11:56:20;;;;;;;3.97;2.00;;;9.20;99.90;;;;;;4414910;32;20054;-59
2024/02/11 11:58:47;;;;;;;2.42;1.70;;;9.20;99.90;;;;;;4413922;32;20144;-58
2024/02/11 12:01:15;;;;;;;4.25;2.42;;;9.20;99.90;;;;;;4397711;32;20061;-58
2024/02/11 12:03:41;;;;;;;1.73;1.45;;;9.20;99.90;;;;;;4408812;32;20069;-64
2024/02/11 12:06:08;;;;;;;30.23;2.47;;;9.20;99.90;;;;;;4414051;32;20053;-60
2024/02/11 12:08:34;;;;;;;11.45;2.60;;;9.30;99.90;;;;;;4414214;32;20102;-60
2024/02/11 12:11:03;;;;;;;7.62;3.47;;;9.30;99.90;;;;;;4412460;32;20396;-59
2024/02/11 12:13:32;;;;;;;4.70;2.37;;;9.30;99.90;;;;;;4406397;32;20181;-58
2024/02/11 12:15:59;;;;;;;2.90;2.08;;;9.30;99.90;;;;;;4409830;32;20061;-58
2024/02/11 12:18:26;;;;;;;8.90;2.72;;;9.20;99.90;;;;;;4412885;32;20102;-59
2024/02/11 12:20:53;;;;;;;5.43;2.03;;;9.30;99.90;;;;;;4412473;32;20066;-59
2024/02/11 12:23:19;;;;;;;2.90;1.80;;;9.30;99.90;;;;;;4410372;32;20101;-59
2024/02/11 12:25:52;;;;;;;12.25;2.67;;;9.30;99.90;;;;;;4413379;32;20073;-59
2024/02/11 12:28:26;;;;;;;17.23;2.12;;;9.30;99.90;;;;;;4411723;32;20093;-58
2024/02/11 12:31:08;;;;;;;15.60;3.17;;;9.40;99.90;;;;;;4413011;32;20466;-58
2024/02/11 12:33:37;;;;;;;2.47;2.10;;;9.40;99.90;;;;;;4408464;32;20078;-59
2024/02/11 12:36:11;;;;;;;13.62;2.78;;;9.40;99.90;;;;;;4413033;32;20090;-58
2024/02/11 12:38:38;;;;;;;2.28;2.08;;;9.40;99.90;;;;;;4412854;32;20089;-60
2024/02/11 12:41:04;;;;;;;13.45;1.67;;;9.40;99.90;;;;;;4411397;32;20069;-58
2024/02/11 12:43:32;;;;;;;7.37;2.30;;;9.40;99.90;;;;;;4405058;32;20097;-58
2024/02/11 12:45:58;;;;;;;2.53;1.65;;;9.40;99.90;;;;;;4408847;32;20536;-60
2024/02/11 12:48:23;;;;;;;3.60;2.12;;;9.40;99.90;;;;;;4412887;32;20157;-59
2024/02/11 12:50:49;;;;;;;1.70;1.60;;;9.40;99.90;;;;;;4415658;32;20488;-58
2024/02/11 12:53:17;;;;;;;9.32;2.30;;;9.40;99.90;;;;;;4410538;32;20148;-58